Time;durP1;ratioP1;P1;durP2;ratioP2;P2;SDS_P1;SDS_P2;PMS_P1;PMS_P2;Temp;Humidity;BMP_temperature;BMP_pressure;BME280_temperature;BME280_humidity;BME280_pressure;Samples;Min_cycle;Max_cycle;Signal;HPM_P1;HPM_P2
2021/08/06 00:02:17;;;;;;;21.42;11.48;;;25.10;69.60;;;;;;5029920;28;20030;-62
2021/08/06 00:04:43;;;;;;;27.15;12.90;;;25.00;70.00;;;;;;5027435;28;20053;-62
2021/08/06 00:07:09;;;;;;;38.53;16.50;;;25.00;70.00;;;;;;5034509;28;20021;-62
2021/08/06 00:09:37;;;;;;;36.33;16.88;;;25.00;70.00;;;;;;5034555;28;20084;-62
2021/08/06 00:12:04;;;;;;;34.55;16.45;;;25.00;70.20;;;;;;5022441;28;20558;-62
2021/08/06 00:14:30;;;;;;;24.30;13.80;;;25.00;70.30;;;;;;5031112;28;20087;-62
2021/08/06 00:16:56;;;;;;;21.90;12.48;;;25.00;70.20;;;;;;5021313;28;20040;-62
2021/08/06 00:19:22;;;;;;;18.73;11.52;;;25.00;70.30;;;;;;5035009;28;20048;-62
2021/08/06 00:21:47;;;;;;;13.52;9.48;;;25.00;70.30;;;;;;5034108;28;20033;-63
2021/08/06 00:24:14;;;;;;;12.50;9.43;;;25.00;70.40;;;;;;5027420;28;20045;-63
2021/08/06 00:26:40;;;;;;;13.30;9.23;;;25.00;70.30;;;;;;5018306;28;20027;-62
2021/08/06 00:29:06;;;;;;;12.05;9.38;;;25.00;70.30;;;;;;5028847;28;20013;-62
2021/08/06 00:31:32;;;;;;;12.80;8.57;;;25.00;70.30;;;;;;5033713;28;20034;-62
2021/08/06 00:33:57;;;;;;;12.05;8.38;;;25.00;70.30;;;;;;5029509;28;20090;-62
2021/08/06 00:36:23;;;;;;;10.95;9.35;;;25.00;70.20;;;;;;5033631;28;20030;-62
2021/08/06 00:38:49;;;;;;;11.40;8.52;;;25.00;70.00;;;;;;5034281;28;20037;-62
2021/08/06 00:41:15;;;;;;;10.52;9.40;;;25.00;70.00;;;;;;5031184;28;20086;-62
2021/08/06 00:43:40;;;;;;;10.98;8.75;;;25.00;70.20;;;;;;5031874;28;20030;-62
2021/08/06 00:46:06;;;;;;;11.00;9.50;;;25.00;70.00;;;;;;5034184;28;20028;-62
2021/08/06 00:48:33;;;;;;;11.38;8.98;;;25.00;70.10;;;;;;5034104;28;20029;-62
2021/08/06 00:50:59;;;;;;;11.02;9.57;;;25.00;70.00;;;;;;5034203;28;20022;-62
2021/08/06 00:53:25;;;;;;;11.02;9.23;;;25.00;70.30;;;;;;5030904;28;20029;-62
2021/08/06 00:55:51;;;;;;;12.57;9.30;;;25.00;70.40;;;;;;5034344;28;20040;-62
2021/08/06 00:58:17;;;;;;;12.07;9.90;;;25.00;70.50;;;;;;5030044;28;20025;-62
2021/08/06 01:00:47;;;;;;;11.63;9.88;;;25.00;70.60;;;;;;5033651;28;20374;-62
2021/08/06 01:03:27;;;;;;;13.57;10.10;;;25.00;70.60;;;;;;5032980;28;20053;-62
2021/08/06 01:06:32;;;;;;;14.98;9.90;;;25.00;70.60;;;;;;5031374;28;20331;-62
2021/08/06 01:09:29;;;;;;;10.70;9.48;;;24.90;70.60;;;;;;5034328;28;20042;-62
2021/08/06 01:12:00;;;;;;;13.23;9.88;;;24.90;70.70;;;;;;5034308;28;20025;-62
2021/08/06 01:14:28;;;;;;;13.73;9.88;;;24.90;70.80;;;;;;5024231;28;20025;-62
2021/08/06 01:16:58;;;;;;;15.75;10.95;;;24.90;71.00;;;;;;5016560;28;21748;-62
2021/08/06 01:19:32;;;;;;;12.50;10.15;;;24.80;71.00;;;;;;5028095;28;20473;-63
2021/08/06 01:22:13;;;;;;;11.95;10.18;;;24.80;71.30;;;;;;5032867;28;20377;-62
2021/08/06 01:24:42;;;;;;;14.98;10.43;;;24.80;71.30;;;;;;5033205;28;20501;-62
2021/08/06 01:27:09;;;;;;;13.27;10.13;;;24.80;71.50;;;;;;5032848;28;20108;-62
2021/08/06 01:29:35;;;;;;;11.57;9.80;;;24.80;71.50;;;;;;5031868;28;20029;-62
2021/08/06 01:32:00;;;;;;;13.27;10.60;;;24.70;71.50;;;;;;5033781;28;20036;-62
2021/08/06 01:34:26;;;;;;;14.65;10.63;;;24.70;71.60;;;;;;5017421;28;20084;-62
2021/08/06 01:36:52;;;;;;;12.00;9.95;;;24.70;71.70;;;;;;5019953;28;20026;-62
2021/08/06 01:39:19;;;;;;;14.35;10.52;;;24.70;71.90;;;;;;5017102;28;20058;-62
2021/08/06 01:41:51;;;;;;;11.82;9.88;;;24.70;72.10;;;;;;5029552;28;20037;-62
2021/08/06 01:44:43;;;;;;;14.45;10.48;;;24.70;72.10;;;;;;5030236;28;20022;-62
2021/08/06 01:47:31;;;;;;;14.70;10.98;;;24.60;71.90;;;;;;5031775;28;20018;-62
2021/08/06 01:50:01;;;;;;;13.98;10.32;;;24.60;72.60;;;;;;5033463;28;20037;-62
2021/08/06 01:52:31;;;;;;;12.77;11.13;;;24.50;72.70;;;;;;5032975;28;20497;-62
2021/08/06 01:55:02;;;;;;;13.30;10.27;;;24.50;72.90;;;;;;5033088;28;20029;-62
2021/08/06 01:57:29;;;;;;;12.25;10.90;;;24.50;72.90;;;;;;5029889;28;20041;-62
2021/08/06 01:59:56;;;;;;;13.88;10.80;;;24.50;73.30;;;;;;5032997;28;20037;-62
2021/08/06 02:02:25;;;;;;;14.70;10.90;;;24.50;73.60;;;;;;5032903;28;20026;-62
2021/08/06 02:04:50;;;;;;;13.95;11.45;;;24.50;73.80;;;;;;5032338;28;20030;-63
2021/08/06 02:07:17;;;;;;;12.57;11.10;;;24.50;73.90;;;;;;5024556;28;20497;-62
2021/08/06 02:09:44;;;;;;;11.35;9.80;;;24.50;74.00;;;;;;5029079;28;20489;-62
2021/08/06 02:12:11;;;;;;;14.60;10.80;;;24.40;74.10;;;;;;5028113;28;20053;-63
2021/08/06 02:14:36;;;;;;;12.32;10.38;;;24.40;74.10;;;;;;5036485;28;20037;-62
2021/08/06 02:17:03;;;;;;;13.82;10.90;;;24.40;74.30;;;;;;5037156;28;20033;-62
2021/08/06 02:19:29;;;;;;;12.68;9.95;;;24.40;74.60;;;;;;5037011;28;20449;-62
2021/08/06 02:21:58;;;;;;;12.95;10.35;;;24.40;74.80;;;;;;5037350;28;20060;-62
2021/08/06 02:24:28;;;;;;;12.35;11.00;;;24.40;75.00;;;;;;5036494;28;20050;-62
2021/08/06 02:26:55;;;;;;;17.40;11.07;;;24.40;75.10;;;;;;5035894;28;20493;-62
2021/08/06 02:29:22;;;;;;;17.35;12.05;;;24.40;75.10;;;;;;5036370;28;20025;-62
2021/08/06 02:31:50;;;;;;;13.07;11.13;;;24.40;75.10;;;;;;5036312;28;20037;-62
2021/08/06 02:34:16;;;;;;;12.60;11.25;;;24.40;75.50;;;;;;5036945;28;20030;-62
2021/08/06 02:36:44;;;;;;;15.13;12.90;;;24.40;75.50;;;;;;5017132;28;20038;-62
2021/08/06 02:39:15;;;;;;;15.38;12.25;;;24.30;75.60;;;;;;5031851;28;20057;-62
2021/08/06 02:41:41;;;;;;;;;;;24.40;75.70;;;;;;5035859;28;20560;-62
2021/08/06 02:44:08;;;;;;;13.55;11.75;;;24.30;74.90;;;;;;5033923;28;20007;-62
2021/08/06 02:46:34;;;;;;;13.88;12.38;;;24.30;75.60;;;;;;5031614;28;20373;-62
2021/08/06 02:49:00;;;;;;;12.98;11.65;;;24.30;75.80;;;;;;5036445;28;20026;-62
2021/08/06 02:51:25;;;;;;;14.80;12.10;;;24.30;76.00;;;;;;5036631;28;20357;-62
2021/08/06 02:53:51;;;;;;;13.68;12.15;;;24.30;76.20;;;;;;5020104;28;20033;-62
2021/08/06 02:56:17;;;;;;;13.57;12.18;;;24.30;76.30;;;;;;5016881;28;20105;-62
2021/08/06 02:58:43;;;;;;;13.77;12.35;;;24.30;76.30;;;;;;5023447;28;20041;-62
2021/08/06 03:01:08;;;;;;;15.55;11.98;;;24.30;76.60;;;;;;5019756;28;20045;-62
2021/08/06 03:03:34;;;;;;;16.48;11.70;;;24.20;76.50;;;;;;5035401;28;20086;-62
2021/08/06 03:05:59;;;;;;;12.50;10.85;;;24.30;76.90;;;;;;5027045;28;20030;-62
2021/08/06 03:08:25;;;;;;;12.13;10.82;;;24.30;77.00;;;;;;5027795;28;20029;-62
2021/08/06 03:10:51;;;;;;;16.60;12.48;;;24.30;76.80;;;;;;5033946;28;20365;-62
2021/08/06 03:13:16;;;;;;;13.25;11.63;;;24.30;77.00;;;;;;5034726;28;20036;-62
2021/08/06 03:15:42;;;;;;;14.60;11.73;;;24.40;77.30;;;;;;5024646;28;20036;-62
2021/08/06 03:18:11;;;;;;;14.40;11.38;;;24.40;77.30;;;;;;5035589;28;20116;-62
2021/08/06 03:20:37;;;;;;;13.90;11.63;;;24.50;77.40;;;;;;5035711;28;20420;-62
2021/08/06 03:23:02;;;;;;;13.50;10.85;;;24.50;77.30;;;;;;5035645;28;20025;-62
2021/08/06 03:25:28;;;;;;;13.15;11.10;;;24.60;77.10;;;;;;5035694;28;20095;-62
2021/08/06 03:27:58;;;;;;;15.15;10.88;;;24.70;77.30;;;;;;5035271;28;20096;-62
2021/08/06 03:30:24;;;;;;;13.00;11.70;;;24.80;77.00;;;;;;5034836;28;20064;-62
2021/08/06 03:32:50;;;;;;;12.77;10.85;;;24.80;76.80;;;;;;5035356;28;20025;-62
2021/08/06 03:35:16;;;;;;;13.27;11.23;;;25.00;76.80;;;;;;5035413;28;20034;-62
2021/08/06 03:37:43;;;;;;;11.80;10.18;;;25.00;76.40;;;;;;5033029;28;20034;-62
2021/08/06 03:40:10;;;;;;;12.68;11.20;;;25.10;76.40;;;;;;5035690;28;20025;-62
2021/08/06 03:42:36;;;;;;;15.70;12.13;;;25.20;76.30;;;;;;5017165;28;20446;-62
2021/08/06 03:45:02;;;;;;;16.80;12.55;;;25.20;76.20;;;;;;5034220;28;20024;-62
2021/08/06 03:47:28;;;;;;;16.35;13.77;;;25.30;76.00;;;;;;5035016;28;20105;-62
2021/08/06 03:49:53;;;;;;;15.57;11.77;;;25.30;75.80;;;;;;5035534;28;20057;-62
2021/08/06 03:52:19;;;;;;;15.88;12.30;;;25.30;75.40;;;;;;5035211;28;20053;-62
2021/08/06 03:54:45;;;;;;;13.43;11.65;;;25.30;75.50;;;;;;5034672;28;20034;-62
2021/08/06 03:57:10;;;;;;;13.63;11.40;;;25.30;75.50;;;;;;5033276;28;20064;-62
2021/08/06 03:59:36;;;;;;;13.38;11.57;;;25.30;75.50;;;;;;5027546;28;20030;-62
2021/08/06 04:02:02;;;;;;;13.40;12.00;;;25.30;75.60;;;;;;5022320;28;20167;-62
2021/08/06 04:04:27;;;;;;;14.50;10.93;;;25.20;75.40;;;;;;5033906;28;20029;-62
2021/08/06 04:06:53;;;;;;;13.07;11.30;;;25.20;75.50;;;;;;5014183;28;20040;-62
2021/08/06 04:09:19;;;;;;;18.60;12.45;;;25.20;75.40;;;;;;5029967;28;20028;-62
2021/08/06 04:11:44;;;;;;;18.98;12.95;;;25.20;75.50;;;;;;5033023;28;20025;-62
2021/08/06 04:14:10;;;;;;;26.05;15.70;;;25.20;75.60;;;;;;5034075;28;20029;-62
2021/08/06 04:16:36;;;;;;;38.00;21.75;;;25.10;75.60;;;;;;5034176;28;20032;-62
2021/08/06 04:19:02;;;;;;;31.63;19.50;;;25.00;75.30;;;;;;5034878;28;20083;-62
2021/08/06 04:21:28;;;;;;;23.05;15.35;;;25.00;75.70;;;;;;5034721;28;20037;-62
2021/08/06 04:23:54;;;;;;;20.85;14.63;;;24.90;76.00;;;;;;5034177;28;20061;-62
2021/08/06 04:26:20;;;;;;;16.42;12.32;;;24.80;76.20;;;;;;5032842;28;20064;-62
2021/08/06 04:28:45;;;;;;;15.07;11.75;;;24.70;76.70;;;;;;5033108;28;20122;-62
2021/08/06 04:31:11;;;;;;;11.40;10.13;;;24.60;76.70;;;;;;5034658;28;20021;-62
2021/08/06 04:33:37;;;;;;;13.70;10.43;;;24.50;77.00;;;;;;5034570;28;20034;-62
2021/08/06 04:36:02;;;;;;;12.68;10.73;;;24.40;76.90;;;;;;5027234;28;20084;-62
2021/08/06 04:38:28;;;;;;;14.98;10.82;;;24.30;77.20;;;;;;5018575;28;20061;-62
2021/08/06 04:40:54;;;;;;;13.90;11.27;;;24.30;77.60;;;;;;5034304;28;20104;-62
2021/08/06 04:43:20;;;;;;;15.05;11.45;;;24.20;78.20;;;;;;5024418;28;20108;-62
2021/08/06 04:45:47;;;;;;;13.25;11.70;;;24.10;78.50;;;;;;5034502;28;20017;-62
2021/08/06 04:48:16;;;;;;;11.93;9.63;;;24.10;79.40;;;;;;5026794;28;20093;-62
2021/08/06 04:50:42;;;;;;;12.48;10.93;;;24.10;80.10;;;;;;5017109;28;20033;-62
2021/08/06 04:53:07;;;;;;;11.52;9.95;;;24.10;80.40;;;;;;5028039;28;20112;-62
2021/08/06 04:55:33;;;;;;;10.27;9.27;;;24.00;80.80;;;;;;5014694;28;20061;-62
2021/08/06 04:57:59;;;;;;;13.23;10.32;;;24.00;80.90;;;;;;5021158;28;20036;-62
2021/08/06 05:00:24;;;;;;;14.15;11.25;;;24.00;81.20;;;;;;5027005;28;20030;-62
2021/08/06 05:02:50;;;;;;;11.60;10.07;;;24.00;81.30;;;;;;5029554;28;20045;-62
2021/08/06 05:05:16;;;;;;;12.30;9.25;;;24.10;81.50;;;;;;5033095;28;20387;-62
2021/08/06 05:07:49;;;;;;;13.23;10.30;;;24.10;81.50;;;;;;5014560;28;20030;-62
2021/08/06 05:10:16;;;;;;;11.85;9.68;;;24.10;81.60;;;;;;5033058;28;20029;-62
2021/08/06 05:12:42;;;;;;;13.75;9.68;;;24.10;81.80;;;;;;5032371;28;20365;-62
2021/08/06 05:15:08;;;;;;;13.57;10.63;;;24.10;81.90;;;;;;5030884;28;20044;-62
2021/08/06 05:17:34;;;;;;;13.05;10.82;;;24.10;82.20;;;;;;5029067;28;20052;-62
2021/08/06 05:20:00;;;;;;;12.35;10.35;;;24.10;82.30;;;;;;5018682;28;20067;-58
2021/08/06 05:22:25;;;;;;;12.15;10.00;;;24.20;82.20;;;;;;5019047;28;20632;-57
2021/08/06 05:24:51;;;;;;;14.02;10.35;;;24.20;82.10;;;;;;5024183;28;20505;-58
2021/08/06 05:27:17;;;;;;;14.23;11.25;;;24.20;81.70;;;;;;5025271;28;20088;-58
2021/08/06 05:29:42;;;;;;;15.23;11.32;;;24.30;81.30;;;;;;5028490;28;20036;-58
2021/08/06 05:32:08;;;;;;;17.50;13.13;;;24.30;81.20;;;;;;5025760;28;20508;-62
2021/08/06 05:34:34;;;;;;;15.10;11.88;;;24.40;81.10;;;;;;5024501;28;20116;-61
2021/08/06 05:36:59;;;;;;;12.48;10.73;;;24.40;80.90;;;;;;5021478;28;20037;-63
2021/08/06 05:39:25;;;;;;;13.60;10.45;;;24.50;80.60;;;;;;5022449;28;20036;-63
2021/08/06 05:41:51;;;;;;;15.55;10.85;;;24.50;80.30;;;;;;5021906;28;20067;-64
2021/08/06 05:44:16;;;;;;;13.50;11.15;;;24.60;80.20;;;;;;5026768;28;20184;-63
2021/08/06 05:46:42;;;;;;;16.55;12.65;;;24.70;79.90;;;;;;5022818;28;20021;-63
2021/08/06 05:49:08;;;;;;;16.95;13.05;;;24.80;79.50;;;;;;5023924;28;20099;-62
2021/08/06 05:51:33;;;;;;;15.43;13.50;;;24.90;79.80;;;;;;5018178;28;20120;-62
2021/08/06 05:54:01;;;;;;;21.30;15.05;;;25.00;79.20;;;;;;5026704;28;20021;-65
2021/08/06 05:56:27;;;;;;;16.52;12.90;;;25.00;78.90;;;;;;5022188;28;20026;-63
2021/08/06 05:58:53;;;;;;;14.70;12.52;;;25.10;78.70;;;;;;5025676;28;20022;-62
2021/08/06 06:01:18;;;;;;;15.63;11.15;;;25.30;78.40;;;;;;5023657;28;20043;-65
2021/08/06 06:03:44;;;;;;;13.73;10.63;;;25.40;77.80;;;;;;5025748;28;20108;-63
2021/08/06 06:06:10;;;;;;;13.13;10.43;;;25.50;77.30;;;;;;5029077;28;20636;-63
2021/08/06 06:08:35;;;;;;;15.48;10.40;;;25.60;77.00;;;;;;5037054;28;20115;-64
2021/08/06 06:11:01;;;;;;;12.02;10.60;;;25.60;76.30;;;;;;5030658;28;20443;-64
2021/08/06 06:13:26;;;;;;;13.88;10.93;;;25.70;76.40;;;;;;5023900;28;20041;-63
2021/08/06 06:15:52;;;;;;;13.88;10.57;;;25.80;76.10;;;;;;5028304;28;21760;-63
2021/08/06 06:18:18;;;;;;;12.60;10.80;;;25.80;75.60;;;;;;5035489;28;20044;-64
2021/08/06 06:20:44;;;;;;;12.45;10.93;;;25.90;75.60;;;;;;5022777;28;20030;-64
2021/08/06 06:23:09;;;;;;;15.25;10.82;;;25.90;75.50;;;;;;5019304;28;20038;-64
2021/08/06 06:25:35;;;;;;;11.77;10.23;;;26.00;75.40;;;;;;5023124;28;20024;-64
2021/08/06 06:28:03;;;;;;;12.90;10.57;;;26.00;75.30;;;;;;5029231;28;20420;-65
2021/08/06 06:30:31;;;;;;;12.48;10.02;;;26.00;75.10;;;;;;5025987;28;20663;-64
2021/08/06 06:32:58;;;;;;;11.50;10.20;;;26.10;75.10;;;;;;5019062;28;20103;-64
2021/08/06 06:35:25;;;;;;;13.05;11.13;;;26.10;75.00;;;;;;5026862;28;20025;-65
2021/08/06 06:37:51;;;;;;;11.57;10.45;;;26.20;75.20;;;;;;5024355;28;20029;-63
2021/08/06 06:40:18;;;;;;;12.40;10.20;;;26.20;75.10;;;;;;5015599;28;20029;-63
2021/08/06 06:42:45;;;;;;;16.75;10.55;;;26.20;75.00;;;;;;5020120;28;20026;-65
2021/08/06 06:45:12;;;;;;;17.73;12.63;;;26.30;74.80;;;;;;5019062;28;20034;-65
2021/08/06 06:47:40;;;;;;;18.00;12.32;;;26.30;74.60;;;;;;5025567;28;20025;-65
2021/08/06 06:50:09;;;;;;;14.27;11.38;;;26.30;74.30;;;;;;5015837;28;20018;-66
2021/08/06 06:52:36;;;;;;;13.75;10.82;;;26.30;74.20;;;;;;5020745;28;20060;-64
2021/08/06 06:55:03;;;;;;;15.32;10.23;;;26.40;74.20;;;;;;5022862;28;20099;-64
2021/08/06 06:57:29;;;;;;;13.23;10.25;;;26.30;74.10;;;;;;5034312;28;20083;-64
2021/08/06 06:59:55;;;;;;;10.00;9.00;;;26.40;73.90;;;;;;5019997;28;20101;-62
2021/08/06 07:02:22;;;;;;;11.73;9.48;;;26.50;73.90;;;;;;5024638;28;20040;-62
2021/08/06 07:04:48;;;;;;;13.65;10.23;;;26.50;73.90;;;;;;5021511;28;20021;-62
2021/08/06 07:07:14;;;;;;;13.60;10.07;;;26.60;74.00;;;;;;5020679;28;20390;-63
2021/08/06 07:09:39;;;;;;;12.63;10.43;;;26.60;74.10;;;;;;5015493;28;20472;-63
2021/08/06 07:12:05;;;;;;;14.43;10.18;;;26.70;74.10;;;;;;5023679;28;20059;-63
2021/08/06 07:14:31;;;;;;;12.80;9.15;;;26.70;73.70;;;;;;5016281;28;20079;-63
2021/08/06 07:16:58;;;;;;;19.38;8.25;;;26.60;73.50;;;;;;5009030;28;20065;-64
2021/08/06 07:19:24;;;;;;;11.48;8.07;;;26.60;73.30;;;;;;5013604;28;20476;-63
2021/08/06 07:21:50;;;;;;;11.57;8.90;;;26.50;73.20;;;;;;5017010;28;20061;-63
2021/08/06 07:24:16;;;;;;;9.27;7.93;;;26.50;72.90;;;;;;5015058;28;20104;-63
2021/08/06 07:26:42;;;;;;;9.52;7.53;;;26.50;72.90;;;;;;5011976;28;20022;-64
2021/08/06 07:29:08;;;;;;;9.23;7.75;;;26.60;72.40;;;;;;5012281;28;20030;-64
2021/08/06 07:31:33;;;;;;;10.20;7.78;;;26.60;72.20;;;;;;5015356;28;20043;-63
2021/08/06 07:33:59;;;;;;;18.00;9.13;;;26.60;71.50;;;;;;5016843;28;20029;-64
2021/08/06 07:36:25;;;;;;;11.05;7.97;;;26.70;71.60;;;;;;5013016;28;20560;-63
2021/08/06 07:38:51;;;;;;;9.05;8.02;;;26.70;71.30;;;;;;5014797;28;20041;-64
2021/08/06 07:41:17;;;;;;;9.30;7.35;;;26.60;71.40;;;;;;5017605;28;20026;-63
2021/08/06 07:43:43;;;;;;;10.48;6.82;;;26.60;71.50;;;;;;5019429;28;20062;-63
2021/08/06 07:46:09;;;;;;;9.82;6.68;;;26.50;71.60;;;;;;5017836;28;20044;-63
2021/08/06 07:48:34;;;;;;;16.10;7.80;;;26.50;71.80;;;;;;5017243;28;20456;-62
2021/08/06 07:51:00;;;;;;;22.30;10.02;;;26.50;71.60;;;;;;5018655;28;20025;-63
2021/08/06 07:53:25;;;;;;;23.90;11.20;;;26.30;71.60;;;;;;5014518;28;20041;-62
2021/08/06 07:55:52;;;;;;;20.63;10.60;;;26.20;71.40;;;;;;5017913;28;20599;-63
2021/08/06 07:58:18;;;;;;;16.08;8.80;;;26.10;71.50;;;;;;5014286;28;20044;-62
2021/08/06 08:00:44;;;;;;;8.90;6.63;;;25.90;71.80;;;;;;5005518;28;20445;-63
2021/08/06 08:03:10;;;;;;;7.03;6.10;;;25.80;72.10;;;;;;5003801;28;20037;-62
2021/08/06 08:05:36;;;;;;;12.02;10.73;;;25.70;72.30;;;;;;5018391;28;20087;-62
2021/08/06 08:08:02;;;;;;;9.23;7.95;;;25.60;72.30;;;;;;5017033;28;20025;-62
2021/08/06 08:10:28;;;;;;;6.30;5.43;;;25.50;72.50;;;;;;5015639;28;20025;-62
2021/08/06 08:12:53;;;;;;;11.10;6.13;;;25.50;72.60;;;;;;5014623;28;20034;-62
2021/08/06 08:15:19;;;;;;;8.05;5.50;;;25.50;72.50;;;;;;5014013;28;20033;-62
2021/08/06 08:17:45;;;;;;;7.75;6.35;;;25.40;72.70;;;;;;5007812;28;20037;-62
2021/08/06 08:20:11;;;;;;;7.80;6.22;;;25.40;72.60;;;;;;5012997;28;20025;-63
2021/08/06 08:22:38;;;;;;;9.43;6.05;;;25.40;72.60;;;;;;5013327;28;20066;-62
2021/08/06 08:25:05;;;;;;;7.45;5.65;;;25.40;72.60;;;;;;5010049;28;20045;-62
2021/08/06 08:27:30;;;;;;;7.43;6.00;;;25.50;72.80;;;;;;5016160;28;20098;-62
2021/08/06 08:29:56;;;;;;;7.60;5.22;;;25.50;72.50;;;;;;5015003;28;20486;-62
2021/08/06 08:32:22;;;;;;;8.25;5.68;;;25.60;72.40;;;;;;5014406;28;20080;-62
2021/08/06 08:34:47;;;;;;;7.13;5.30;;;25.60;72.10;;;;;;5020077;28;20086;-63
2021/08/06 08:37:14;;;;;;;6.57;5.38;;;25.70;71.80;;;;;;5009730;28;20041;-62
2021/08/06 08:39:40;;;;;;;8.07;5.55;;;25.80;71.50;;;;;;5015790;28;20596;-62
2021/08/06 08:42:06;;;;;;;8.40;5.57;;;26.00;71.10;;;;;;5013641;28;20038;-62
2021/08/06 08:44:33;;;;;;;5.03;4.50;;;26.10;70.50;;;;;;5007654;28;20138;-63
2021/08/06 08:46:59;;;;;;;6.95;4.55;;;26.20;70.10;;;;;;5008163;28;20033;-62
2021/08/06 08:49:30;;;;;;;7.78;4.97;;;26.30;69.60;;;;;;5015208;28;20034;-62
2021/08/06 08:51:56;;;;;;;8.98;5.25;;;26.40;69.30;;;;;;5014192;28;20022;-62
2021/08/06 08:54:22;;;;;;;10.82;4.88;;;26.50;69.40;;;;;;5009565;28;20485;-62
2021/08/06 08:56:47;;;;;;;7.82;5.03;;;26.70;68.90;;;;;;5017764;28;20040;-63
2021/08/06 08:59:13;;;;;;;8.80;4.82;;;26.80;68.50;;;;;;5008257;28;20390;-62
2021/08/06 09:01:39;;;;;;;9.55;5.13;;;26.90;68.00;;;;;;5008977;28;20036;-62
2021/08/06 09:04:20;;;;;;;10.57;5.38;;;27.00;68.00;;;;;;5005609;28;20025;-63
2021/08/06 09:06:48;;;;;;;8.00;5.35;;;27.10;68.00;;;;;;5006162;28;20061;-61
2021/08/06 09:09:21;;;;;;;4.95;4.15;;;27.10;67.60;;;;;;5005705;28;20698;-61
2021/08/06 09:12:01;;;;;;;9.13;4.70;;;27.20;67.10;;;;;;5009619;28;20033;-63
2021/08/06 09:14:30;;;;;;;6.67;4.57;;;27.30;66.60;;;;;;5006359;28;20038;-64
2021/08/06 09:17:00;;;;;;;9.25;4.53;;;27.30;66.30;;;;;;5010925;28;20139;-64
2021/08/06 09:19:28;;;;;;;8.40;5.05;;;27.40;65.80;;;;;;5017280;28;20919;-64
2021/08/06 09:22:27;;;;;;;13.30;6.18;;;27.40;65.20;;;;;;5013110;28;20077;-64
2021/08/06 09:25:10;;;;;;;15.55;5.10;;;27.50;64.90;;;;;;5020764;28;20041;-65
2021/08/06 09:27:47;;;;;;;7.05;3.97;;;27.50;64.20;;;;;;5007217;28;20782;-62
2021/08/06 09:30:24;;;;;;;5.57;3.50;;;27.60;63.70;;;;;;5012929;28;20036;-63
2021/08/06 09:32:53;;;;;;;8.20;4.00;;;27.60;62.90;;;;;;5015210;28;20038;-62
2021/08/06 09:35:25;;;;;;;9.27;3.80;;;27.70;62.60;;;;;;5014357;28;20029;-62
2021/08/06 09:37:51;;;;;;;5.72;3.85;;;27.70;61.70;;;;;;5007774;28;20033;-62
2021/08/06 09:40:24;;;;;;;7.30;4.07;;;27.80;61.40;;;;;;5009808;28;20343;-64
2021/08/06 09:43:02;;;;;;;6.22;3.63;;;27.90;61.20;;;;;;5007509;28;20030;-64
2021/08/06 09:45:36;;;;;;;5.55;3.50;;;27.90;60.50;;;;;;5011740;28;20577;-65
2021/08/06 09:48:03;;;;;;;5.32;3.60;;;28.00;60.20;;;;;;5017142;28;20033;-65
2021/08/06 09:50:36;;;;;;;5.22;3.38;;;28.10;59.80;;;;;;5018508;28;20064;-64
2021/08/06 09:53:04;;;;;;;6.75;4.05;;;28.20;59.40;;;;;;5014165;28;20056;-64
2021/08/06 09:55:36;;;;;;;5.15;3.55;;;28.30;58.90;;;;;;5013641;28;20587;-64
2021/08/06 09:58:05;;;;;;;5.28;3.53;;;28.30;58.70;;;;;;5014857;28;20073;-64
2021/08/06 10:00:32;;;;;;;6.22;3.63;;;28.40;58.30;;;;;;5012556;28;20084;-63
2021/08/06 10:02:58;;;;;;;5.95;3.47;;;28.50;58.10;;;;;;5013877;28;20037;-63
2021/08/06 10:05:27;;;;;;;5.38;4.00;;;28.50;58.00;;;;;;5013724;28;20036;-64
2021/08/06 10:07:55;;;;;;;7.82;5.05;;;28.60;57.70;;;;;;5011381;28;20558;-63
2021/08/06 10:10:24;;;;;;;7.78;4.65;;;28.70;57.60;;;;;;5015594;28;20036;-64
2021/08/06 10:12:51;;;;;;;8.32;4.15;;;28.70;57.20;;;;;;5018110;28;20033;-64
2021/08/06 10:15:18;;;;;;;8.18;4.28;;;28.80;57.20;;;;;;5014877;28;20064;-63
2021/08/06 10:17:44;;;;;;;8.30;4.13;;;28.80;57.70;;;;;;5016249;28;20038;-62
2021/08/06 10:20:13;;;;;;;6.45;3.90;;;28.90;56.70;;;;;;5016899;28;20033;-64
2021/08/06 10:22:39;;;;;;;5.63;3.20;;;29.00;56.30;;;;;;5016836;28;20034;-64
2021/08/06 10:25:08;;;;;;;4.93;3.40;;;29.00;56.10;;;;;;5014329;28;20099;-64
2021/08/06 10:27:35;;;;;;;5.32;3.30;;;29.10;56.30;;;;;;5025275;28;20105;-63
2021/08/06 10:30:01;;;;;;;5.05;3.15;;;29.20;56.40;;;;;;5024666;28;20068;-63
2021/08/06 10:32:28;;;;;;;5.55;3.40;;;29.20;56.00;;;;;;5027054;28;20631;-63
2021/08/06 10:35:05;;;;;;;7.40;4.70;;;29.30;57.00;;;;;;5030161;28;20508;-62
2021/08/06 10:37:49;;;;;;;6.38;4.60;;;29.30;59.60;;;;;;5025562;28;20034;-63
2021/08/06 10:40:33;;;;;;;5.13;4.63;;;29.30;61.40;;;;;;5027224;28;20025;-62
2021/08/06 10:43:11;;;;;;;8.48;4.40;;;29.20;61.90;;;;;;5027349;28;20036;-63
2021/08/06 10:45:46;;;;;;;7.15;4.40;;;29.10;61.70;;;;;;5022630;28;20025;-62
2021/08/06 10:48:42;;;;;;;10.00;4.80;;;29.00;61.90;;;;;;5022317;28;20033;-62
2021/08/06 10:51:18;;;;;;;5.88;4.60;;;28.90;62.30;;;;;;5023547;28;20071;-62
2021/08/06 10:53:56;;;;;;;7.22;4.97;;;28.90;62.40;;;;;;5030055;28;20029;-63
2021/08/06 10:56:24;;;;;;;5.95;4.40;;;28.90;63.30;;;;;;5031198;28;20052;-63
2021/08/06 10:58:53;;;;;;;8.95;5.28;;;28.90;63.00;;;;;;5028798;28;20032;-63
2021/08/06 11:01:28;;;;;;;5.40;4.88;;;28.90;62.90;;;;;;5026255;28;20063;-62
2021/08/06 11:03:56;;;;;;;7.35;6.25;;;28.90;63.50;;;;;;5023845;28;20289;-62
2021/08/06 11:06:48;;;;;;;8.20;5.85;;;28.80;65.00;;;;;;5020277;28;20573;-62
2021/08/06 11:09:23;;;;;;;7.68;6.88;;;28.80;65.10;;;;;;5019462;28;20084;-62
2021/08/06 11:11:58;;;;;;;10.65;7.80;;;28.80;66.40;;;;;;5028358;28;20377;-63
2021/08/06 11:14:29;;;;;;;9.80;7.18;;;28.80;66.90;;;;;;5025833;28;20032;-63
2021/08/06 11:17:11;;;;;;;15.18;7.97;;;28.70;67.40;;;;;;5025894;28;20044;-64
2021/08/06 11:19:56;;;;;;;8.68;7.53;;;28.60;68.50;;;;;;5015434;28;20029;-64
2021/08/06 11:22:41;;;;;;;11.02;7.70;;;28.50;68.20;;;;;;5023943;28;20137;-64
2021/08/06 11:25:16;;;;;;;11.10;7.85;;;28.50;69.10;;;;;;5019240;28;20108;-65
2021/08/06 11:27:45;;;;;;;14.68;8.82;;;28.40;69.10;;;;;;5025197;28;20512;-64
2021/08/06 11:30:15;;;;;;;8.98;7.53;;;28.40;69.10;;;;;;5019288;28;20074;-64
2021/08/06 11:32:55;;;;;;;9.30;7.68;;;28.40;68.90;;;;;;5023730;28;20025;-64
2021/08/06 11:35:30;;;;;;;10.18;8.10;;;28.40;69.10;;;;;;5022422;28;20033;-65
2021/08/06 11:38:06;;;;;;;10.23;7.53;;;28.30;69.60;;;;;;5018446;28;20029;-64
2021/08/06 11:40:33;;;;;;;8.90;8.00;;;28.30;69.70;;;;;;5023210;28;20025;-65
2021/08/06 11:43:15;;;;;;;17.05;7.65;;;28.20;69.40;;;;;;5024164;28;20087;-63
2021/08/06 11:45:43;;;;;;;9.38;7.63;;;28.20;69.20;;;;;;5022687;28;20036;-63
2021/08/06 11:48:09;;;;;;;8.70;7.18;;;28.10;69.00;;;;;;5016316;28;20107;-62
2021/08/06 11:50:38;;;;;;;8.32;7.07;;;28.10;68.80;;;;;;5019362;28;20026;-63
2021/08/06 11:53:19;;;;;;;11.35;8.00;;;28.00;68.60;;;;;;5020577;28;20033;-64
2021/08/06 11:55:50;;;;;;;9.68;8.05;;;28.00;68.40;;;;;;5021025;28;20083;-64
2021/08/06 11:58:27;;;;;;;;;;;27.90;68.50;;;;;;5021420;28;20432;-63
2021/08/06 12:00:53;;;;;;;9.85;8.50;;;27.80;68.80;;;;;;5022352;28;19924;-64
2021/08/06 12:03:19;;;;;;;9.13;8.23;;;27.80;69.80;;;;;;5019997;28;20509;-64
2021/08/06 12:05:47;;;;;;;10.05;8.70;;;27.80;71.00;;;;;;5017616;28;20041;-63
2021/08/06 12:08:21;;;;;;;10.15;8.98;;;27.80;71.90;;;;;;5013235;28;20053;-64
2021/08/06 12:10:51;;;;;;;12.63;9.63;;;27.80;72.50;;;;;;5018026;28;20041;-64
2021/08/06 12:13:23;;;;;;;13.13;9.18;;;27.80;73.00;;;;;;5022154;28;20426;-64
2021/08/06 12:16:04;;;;;;;12.10;9.50;;;27.70;73.90;;;;;;5023964;28;20018;-64
2021/08/06 12:18:30;;;;;;;10.73;9.63;;;27.70;74.70;;;;;;5025978;28;20033;-64
2021/08/06 12:20:59;;;;;;;13.27;10.60;;;27.70;75.90;;;;;;5020985;28;20796;-64
2021/08/06 12:23:25;;;;;;;7.85;6.55;;;27.70;76.60;;;;;;5024851;28;20045;-63
2021/08/06 12:26:14;;;;;;;7.30;6.05;;;27.60;74.40;;;;;;5021557;28;20036;-63
2021/08/06 12:28:43;;;;;;;10.63;5.53;;;27.50;72.90;;;;;;5018619;28;20072;-64
2021/08/06 12:31:12;;;;;;;8.40;5.20;;;27.40;72.80;;;;;;5015291;28;20396;-63
2021/08/06 12:33:38;;;;;;;7.93;6.22;;;27.20;72.60;;;;;;5013208;28;20037;-63
2021/08/06 12:36:13;;;;;;;7.30;5.63;;;27.10;72.80;;;;;;5006720;28;20056;-63
2021/08/06 12:38:39;;;;;;;6.97;5.43;;;26.90;73.00;;;;;;5011528;28;20516;-64
2021/08/06 12:41:04;;;;;;;8.95;5.80;;;26.70;73.60;;;;;;5014208;28;20152;-63
2021/08/06 12:43:30;;;;;;;8.57;5.70;;;26.50;74.00;;;;;;5013957;28;20425;-63